Time;durP1;ratioP1;P1;durP2;ratioP2;P2;SDS_P1;SDS_P2;PMS_P1;PMS_P2;Temp;Humidity;BMP_temperature;BMP_pressure;BME280_temperature;BME280_humidity;BME280_pressure;Samples;Min_cycle;Max_cycle;Signal;HPM_P1;HPM_P2
2023/12/01 00:00:33;;;;;;;1999.90;999.90;;;;;;;;;;5013454;28;20222;-73
2023/12/01 00:02:58;;;;;;;1999.90;999.90;;;2.90;99.90;;;;;;5012263;28;20181;-72
2023/12/01 00:05:24;;;;;;;1999.90;999.90;;;2.90;99.30;;;;;;5013540;28;20423;-72
2023/12/01 00:07:50;;;;;;;1999.90;999.90;;;;;;;;;;5013172;28;20272;-73
2023/12/01 00:10:15;;;;;;;1999.90;999.90;;;2.90;76.80;;;;;;5013871;28;20567;-72
2023/12/01 00:12:41;;;;;;;1999.90;999.90;;;3.10;75.00;;;;;;5013638;28;20423;-72
2023/12/01 00:15:08;;;;;;;1999.90;999.90;;;2.90;51.50;;;;;;5013626;28;20173;-72
2023/12/01 00:17:33;;;;;;;1999.90;999.90;;;2.90;54.20;;;;;;5013439;28;20200;-72
2023/12/01 00:19:59;;;;;;;1999.90;999.90;;;2.80;44.20;;;;;;5013543;28;20235;-73
2023/12/01 00:22:25;;;;;;;1999.90;999.90;;;2.80;38.70;;;;;;5013039;28;20171;-72
2023/12/01 00:24:50;;;;;;;1999.90;999.90;;;2.80;28.40;;;;;;5013108;28;20846;-72
2023/12/01 00:27:16;;;;;;;1999.90;999.90;;;2.50;51.20;;;;;;5012966;28;20165;-72
2023/12/01 00:29:42;;;;;;;1999.90;999.90;;;2.70;13.20;;;;;;5013110;28;20249;-72
2023/12/01 00:32:07;;;;;;;1999.90;999.90;;;2.60;6.20;;;;;;5013048;28;20240;-73
2023/12/01 00:34:33;;;;;;;1999.90;999.90;;;2.60;9.60;;;;;;5013021;28;20169;-72
2023/12/01 00:36:59;;;;;;;1999.90;999.90;;;2.60;4.80;;;;;;5012737;28;20201;-72
2023/12/01 00:39:24;;;;;;;1999.90;999.90;;;2.50;1.00;;;;;;5012744;28;20189;-72
2023/12/01 00:41:51;;;;;;;1999.90;999.90;;;2.40;1.00;;;;;;5012797;28;20161;-72
2023/12/01 00:44:16;;;;;;;1999.90;999.90;;;2.40;1.00;;;;;;5012124;28;20216;-73
2023/12/01 00:46:42;;;;;;;1999.90;999.90;;;2.30;1.00;;;;;;5027795;28;20270;-73
2023/12/01 00:49:08;;;;;;;1999.90;999.90;;;2.30;1.00;;;;;;5012701;28;20427;-72
2023/12/01 00:51:33;;;;;;;1999.90;999.90;;;2.30;1.80;;;;;;5012745;28;20219;-72
2023/12/01 00:53:59;;;;;;;1999.90;999.90;;;2.30;8.90;;;;;;5012580;28;20173;-73
2023/12/01 00:56:24;;;;;;;1999.90;999.90;;;2.30;4.30;;;;;;5012404;28;20548;-73
2023/12/01 00:58:50;;;;;;;1999.90;999.90;;;2.30;8.70;;;;;;5012518;28;20200;-72
2023/12/01 01:01:17;;;;;;;1999.90;999.90;;;;;;;;;;5012533;28;20177;-72
2023/12/01 01:03:43;;;;;;;1999.90;999.90;;;2.30;1.00;;;;;;5012502;28;20700;-73
2023/12/01 01:06:10;;;;;;;1999.90;999.90;;;2.40;1.00;;;;;;5012573;28;20248;-73
2023/12/01 01:08:35;;;;;;;1999.90;999.90;;;2.10;1.00;;;;;;5012473;28;20416;-73
2023/12/01 01:11:01;;;;;;;1999.90;999.90;;;4.60;1.00;;;;;;5012478;28;20215;-72
2023/12/01 01:13:27;;;;;;;1999.90;999.90;;;2.20;1.50;;;;;;5012412;28;20629;-71
2023/12/01 01:15:53;;;;;;;1999.90;999.90;;;2.20;1.00;;;;;;5012394;28;20596;-72
2023/12/01 01:18:20;;;;;;;1999.90;999.90;;;2.20;1.00;;;;;;5011955;28;20295;-72
2023/12/01 01:20:46;;;;;;;1999.90;999.90;;;2.10;1.00;;;;;;5012175;28;20165;-73
2023/12/01 01:23:11;;;;;;;1999.90;999.90;;;2.00;1.00;;;;;;5012171;28;20178;-73
2023/12/01 01:25:37;;;;;;;1999.90;999.90;;;2.00;1.00;;;;;;5012247;28;20450;-72
2023/12/01 01:28:03;;;;;;;1999.90;999.90;;;1.60;33.40;;;;;;5011922;28;20239;-72
2023/12/01 01:30:28;;;;;;;1999.90;999.90;;;2.00;1.00;;;;;;5012356;28;20627;-72
2023/12/01 01:32:54;;;;;;;1999.90;999.90;;;2.00;2.80;;;;;;5012186;28;20200;-73
2023/12/01 01:35:19;;;;;;;1999.90;999.90;;;1.80;3.20;;;;;;5012120;28;20170;-72
2023/12/01 01:37:45;;;;;;;1999.90;999.90;;;1.90;8.20;;;;;;5010538;28;20290;-73
2023/12/01 01:40:12;;;;;;;1999.90;999.90;;;1.90;17.50;;;;;;5012091;28;20161;-71
2023/12/01 01:42:38;;;;;;;1999.90;999.90;;;1.90;13.40;;;;;;5012071;28;20160;-72
2023/12/01 01:45:04;;;;;;;1999.90;999.90;;;2.20;23.00;;;;;;5012125;28;20599;-73
2023/12/01 01:47:31;;;;;;;1999.90;999.90;;;1.80;17.50;;;;;;5012044;28;20267;-72
2023/12/01 01:49:57;;;;;;;1999.90;999.90;;;1.80;33.00;;;;;;5012039;28;20180;-72
2023/12/01 01:52:23;;;;;;;1999.90;999.90;;;1.70;30.60;;;;;;5011969;28;20559;-72
2023/12/01 01:54:49;;;;;;;1999.90;999.90;;;1.70;38.70;;;;;;5012068;28;20419;-72
2023/12/01 01:57:14;;;;;;;1999.90;999.90;;;1.70;92.50;;;;;;5015118;28;20200;-72
2023/12/01 01:59:42;;;;;;;1999.90;999.90;;;1.80;50.50;;;;;;5015899;28;20211;-71
2023/12/01 02:02:08;;;;;;;1999.90;999.90;;;1.80;48.30;;;;;;5015647;28;20172;-73
2023/12/01 02:04:33;;;;;;;1999.90;999.90;;;1.60;48.30;;;;;;5015654;28;20641;-72
2023/12/01 02:06:59;;;;;;;1999.90;999.90;;;1.80;56.80;;;;;;5015721;28;20284;-73
2023/12/01 02:09:24;;;;;;;1999.90;999.90;;;1.90;33.80;;;;;;5015544;28;20197;-73
2023/12/01 02:11:50;;;;;;;1999.90;999.90;;;1.90;45.70;;;;;;5015522;28;20244;-73
2023/12/01 02:14:15;;;;;;;1999.90;999.90;;;2.00;41.80;;;;;;5015538;28;20201;-72
2023/12/01 02:16:45;;;;;;;1999.90;999.90;;;2.00;38.60;;;;;;5015359;28;20193;-72
2023/12/01 02:19:12;;;;;;;1999.90;999.90;;;1.90;35.60;;;;;;5015539;28;20189;-71
2023/12/01 02:21:43;;;;;;;1999.90;999.90;;;1.90;32.60;;;;;;5015407;28;20260;-72
2023/12/01 02:24:09;;;;;;;1999.90;999.90;;;1.80;29.30;;;;;;5015499;28;20652;-73
2023/12/01 02:26:35;;;;;;;1999.90;999.90;;;1.80;40.00;;;;;;5030393;28;20189;-72
2023/12/01 02:29:04;;;;;;;1999.90;999.90;;;1.90;31.10;;;;;;5015428;28;20197;-72
2023/12/01 02:31:29;;;;;;;1999.90;999.90;;;1.90;41.40;;;;;;5013972;28;20176;-71
2023/12/01 02:33:55;;;;;;;1999.90;999.90;;;1.90;48.90;;;;;;5015047;28;20231;-73
2023/12/01 02:36:21;;;;;;;1999.90;999.90;;;2.00;47.40;;;;;;5013669;28;20181;-72
2023/12/01 02:38:47;;;;;;;1999.90;999.90;;;1.90;38.90;;;;;;5015005;28;20197;-72
2023/12/01 02:41:14;;;;;;;1999.90;999.90;;;1.90;39.80;;;;;;5015046;28;20208;-72
2023/12/01 02:43:40;;;;;;;1999.90;999.90;;;1.90;30.80;;;;;;5015150;28;20256;-72
2023/12/01 02:46:06;;;;;;;1999.90;999.90;;;1.90;32.70;;;;;;5014867;28;20216;-73
2023/12/01 02:48:31;;;;;;;1999.90;999.90;;;1.90;37.60;;;;;;5014948;28;20554;-72
2023/12/01 02:50:57;;;;;;;1999.90;999.90;;;1.90;28.20;;;;;;5015032;28;20210;-72
2023/12/01 02:53:24;;;;;;;1999.90;999.90;;;;;;;;;;5014805;28;20238;-72
2023/12/01 02:55:50;;;;;;;1999.90;999.90;;;1.90;48.10;;;;;;5014887;28;20188;-72
2023/12/01 02:58:15;;;;;;;1999.90;999.90;;;1.90;56.70;;;;;;5014703;28;20205;-71
2023/12/01 03:00:42;;;;;;;1999.90;999.90;;;2.00;49.60;;;;;;5013678;28;20169;-72
2023/12/01 03:03:08;;;;;;;1999.90;999.90;;;2.10;54.90;;;;;;5014621;28;20248;-72
2023/12/01 03:05:33;;;;;;;1999.90;999.90;;;2.10;40.60;;;;;;5014755;28;20200;-72
2023/12/01 03:07:59;;;;;;;1999.90;999.90;;;2.10;44.80;;;;;;5013560;28;20192;-72
2023/12/01 03:10:24;;;;;;;1999.90;999.90;;;2.10;38.20;;;;;;5014499;28;20648;-72
2023/12/01 03:12:50;;;;;;;1999.90;999.90;;;2.10;39.20;;;;;;5014708;28;20652;-72
2023/12/01 03:15:20;;;;;;;1999.90;999.90;;;2.10;33.60;;;;;;5014506;28;20542;-72
2023/12/01 03:17:46;;;;;;;1999.90;999.90;;;2.10;23.90;;;;;;5013876;28;20288;-72
2023/12/01 03:20:14;;;;;;;1999.90;999.90;;;2.10;17.90;;;;;;5014434;28;20169;-72
2023/12/01 03:22:41;;;;;;;1999.90;999.90;;;2.10;4.90;;;;;;5014232;28;20193;-72
2023/12/01 03:25:11;;;;;;;1999.90;999.90;;;2.10;1.00;;;;;;5014199;28;20223;-72
2023/12/01 03:27:40;;;;;;;1999.90;999.90;;;2.10;1.00;;;;;;5013893;28;20185;-73
2023/12/01 03:30:16;;;;;;;1999.90;999.90;;;2.10;1.00;;;;;;5014126;28;20177;-72
2023/12/01 03:32:50;;;;;;;1999.90;999.90;;;2.00;1.00;;;;;;5014050;28;20169;-73
2023/12/01 03:35:17;;;;;;;1999.90;999.90;;;2.10;1.00;;;;;;5013962;28;20192;-72
2023/12/01 03:37:44;;;;;;;1999.90;999.90;;;2.10;1.00;;;;;;5013670;28;20193;-73
2023/12/01 03:40:12;;;;;;;1999.90;999.90;;;2.10;1.00;;;;;;5013993;28;20191;-72
2023/12/01 03:42:43;;;;;;;1999.90;999.90;;;2.10;1.00;;;;;;5013763;28;20167;-72
2023/12/01 03:45:10;;;;;;;1999.90;999.90;;;2.10;1.00;;;;;;5013870;28;20300;-71
2023/12/01 03:47:37;;;;;;;1999.90;999.90;;;2.10;1.00;;;;;;5012272;28;20227;-71
2023/12/01 03:50:06;;;;;;;1999.90;999.90;;;2.10;1.00;;;;;;5013873;28;20692;-72
2023/12/01 03:52:31;;;;;;;1999.90;999.90;;;2.10;1.00;;;;;;5013752;28;20177;-72
2023/12/01 03:55:01;;;;;;;1999.90;999.90;;;2.10;1.00;;;;;;5013722;28;20183;-71
2023/12/01 03:57:27;;;;;;;1999.90;999.90;;;1.90;1.00;;;;;;5054744;22;20204;-69
2023/12/01 03:59:54;;;;;;;1999.90;999.90;;;2.10;1.00;;;;;;4980933;28;20196;-69
2023/12/01 04:02:19;;;;;;;1999.90;999.90;;;2.20;1.00;;;;;;4981859;28;20257;-69
2023/12/01 04:04:45;;;;;;;1999.90;999.90;;;2.20;1.00;;;;;;4983291;28;20485;-68
2023/12/01 04:07:11;;;;;;;1999.90;999.90;;;2.20;1.00;;;;;;4980513;28;20181;-70
2023/12/01 04:09:37;;;;;;;1999.90;999.90;;;2.20;1.00;;;;;;4986498;28;20512;-70
2023/12/01 04:12:03;;;;;;;1999.90;999.90;;;2.20;1.00;;;;;;4987913;28;20188;-69
2023/12/01 04:14:29;;;;;;;1999.90;999.90;;;2.20;1.00;;;;;;4993690;28;20178;-69
2023/12/01 04:16:56;;;;;;;1999.90;999.90;;;2.20;1.00;;;;;;4984782;28;20561;-70
2023/12/01 04:19:21;;;;;;;1999.90;999.90;;;2.30;1.00;;;;;;4993304;28;20459;-69
2023/12/01 04:21:47;;;;;;;1999.90;999.90;;;2.20;1.00;;;;;;4983159;28;20209;-69
2023/12/01 04:24:13;;;;;;;1999.90;999.90;;;2.30;1.00;;;;;;4993233;28;20174;-69
2023/12/01 04:26:38;;;;;;;1999.90;999.90;;;2.30;99.90;;;;;;4993442;28;20712;-69
2023/12/01 04:29:04;;;;;;;1999.90;999.90;;;2.40;99.90;;;;;;4993020;28;20197;-69
2023/12/01 04:31:30;;;;;;;1999.90;999.90;;;2.30;99.90;;;;;;4993191;28;20264;-69
2023/12/01 04:33:56;;;;;;;1999.90;999.90;;;2.30;99.90;;;;;;4992972;28;20193;-69
2023/12/01 04:36:22;;;;;;;1999.90;999.90;;;2.30;99.90;;;;;;4992784;28;20433;-69
2023/12/01 04:38:48;;;;;;;1999.90;999.90;;;2.30;99.90;;;;;;4992761;28;20201;-69
2023/12/01 04:41:14;;;;;;;1999.90;999.90;;;2.20;99.90;;;;;;4992978;28;20715;-69
2023/12/01 04:43:40;;;;;;;1999.90;999.90;;;2.20;96.40;;;;;;4992908;28;20232;-69
2023/12/01 04:46:06;;;;;;;1999.90;999.90;;;2.20;41.30;;;;;;4992731;28;20194;-69
2023/12/01 04:48:31;;;;;;;1999.90;999.90;;;2.20;1.00;;;;;;4992849;28;20460;-69
2023/12/01 04:50:57;;;;;;;1999.90;999.90;;;2.20;1.00;;;;;;4992696;28;20691;-69
2023/12/01 04:53:23;;;;;;;1999.90;999.90;;;2.20;1.00;;;;;;4992725;28;20170;-69
2023/12/01 04:55:48;;;;;;;1999.90;999.90;;;2.20;1.00;;;;;;4992569;28;20181;-69
2023/12/01 04:58:15;;;;;;;1999.90;999.90;;;2.10;99.90;;;;;;4992303;28;20233;-69
2023/12/01 05:00:40;;;;;;;1999.90;999.90;;;2.10;99.90;;;;;;4992867;28;20181;-69
2023/12/01 05:03:07;;;;;;;1999.90;999.90;;;2.10;99.90;;;;;;4992592;28;20182;-69
2023/12/01 05:05:35;;;;;;;1999.90;999.90;;;2.10;99.90;;;;;;4992771;28;20166;-69
2023/12/01 05:08:04;;;;;;;1999.90;999.90;;;2.10;66.40;;;;;;4992163;28;20206;-69
2023/12/01 05:10:31;;;;;;;1999.90;999.90;;;2.20;1.00;;;;;;4992626;28;20189;-69
2023/12/01 05:12:59;;;;;;;1999.90;999.90;;;2.20;1.00;;;;;;4992747;28;20707;-69
2023/12/01 05:15:27;;;;;;;1999.90;999.90;;;2.20;1.00;;;;;;4992700;28;20195;-69
2023/12/01 05:18:00;;;;;;;1999.90;999.90;;;2.10;99.90;;;;;;4992081;28;20616;-69
2023/12/01 05:20:27;;;;;;;1999.90;999.90;;;2.20;99.90;;;;;;4992464;28;20172;-69
2023/12/01 05:23:11;;;;;;;1999.90;999.90;;;2.20;1.00;;;;;;4992321;28;20193;-69
2023/12/01 05:25:38;;;;;;;1999.90;999.90;;;2.30;1.00;;;;;;4992558;28;20180;-69
2023/12/01 05:28:08;;;;;;;1999.90;999.90;;;2.30;1.00;;;;;;4992130;28;20239;-69
2023/12/01 05:30:35;;;;;;;1999.90;999.90;;;2.30;1.00;;;;;;4991839;28;20185;-69
2023/12/01 05:33:01;;;;;;;1999.90;999.90;;;2.30;1.00;;;;;;4992231;28;20213;-69
2023/12/01 05:35:27;;;;;;;1999.90;999.90;;;2.40;99.90;;;;;;4992417;28;20532;-69
2023/12/01 05:37:57;;;;;;;1999.90;999.90;;;2.40;99.90;;;;;;4991839;28;20213;-69
2023/12/01 05:40:27;;;;;;;1999.90;999.90;;;2.40;99.90;;;;;;4992395;28;20178;-69
2023/12/01 05:42:55;;;;;;;1999.90;999.90;;;2.40;1.00;;;;;;4992223;28;20755;-69
2023/12/01 05:45:22;;;;;;;1999.90;999.90;;;2.40;1.00;;;;;;4992166;28;20525;-69
2023/12/01 05:47:49;;;;;;;1999.90;999.90;;;2.30;99.90;;;;;;4991909;28;20296;-69
2023/12/01 05:50:24;;;;;;;1999.90;999.90;;;2.40;99.90;;;;;;4992186;28;20256;-69
2023/12/01 05:52:51;;;;;;;1999.90;999.90;;;2.40;99.90;;;;;;4992243;28;20553;-69
2023/12/01 05:55:37;;;;;;;1999.90;999.90;;;2.40;99.90;;;;;;4992236;28;20188;-69
2023/12/01 05:58:10;;;;;;;1999.90;999.90;;;2.40;99.90;;;;;;4991297;28;20225;-69
2023/12/01 06:00:36;;;;;;;1999.90;999.90;;;2.40;99.90;;;;;;4992336;28;20182;-69
2023/12/01 06:03:07;;;;;;;1999.90;999.90;;;2.40;36.70;;;;;;4992040;28;20276;-69
2023/12/01 06:05:33;;;;;;;1999.90;999.90;;;2.30;1.00;;;;;;4992208;28;20174;-69
2023/12/01 06:08:00;;;;;;;1999.90;999.90;;;2.30;1.00;;;;;;4991738;28;20665;-69
2023/12/01 06:10:28;;;;;;;1999.90;999.90;;;2.30;1.00;;;;;;4991947;28;20177;-69
2023/12/01 06:12:54;;;;;;;1999.90;999.90;;;2.30;92.10;;;;;;4992252;28;20186;-69
2023/12/01 06:15:20;;;;;;;1999.90;999.90;;;2.30;99.90;;;;;;4991910;28;20838;-69
2023/12/01 06:17:52;;;;;;;1999.90;999.90;;;2.30;45.00;;;;;;4991742;28;20209;-69
2023/12/01 06:20:20;;;;;;;1999.90;999.90;;;2.30;76.20;;;;;;4991928;28;20405;-69
2023/12/01 06:22:56;;;;;;;1999.90;999.90;;;2.40;99.90;;;;;;4991929;28;20190;-69
2023/12/01 06:25:29;;;;;;;1999.90;999.90;;;2.40;1.00;;;;;;4991987;28;20177;-69
2023/12/01 06:27:56;;;;;;;1999.90;999.90;;;2.50;1.00;;;;;;4991779;28;20217;-69
2023/12/01 06:30:23;;;;;;;1999.90;999.90;;;2.40;99.90;;;;;;4991887;28;20185;-69
2023/12/01 06:32:50;;;;;;;1999.90;999.90;;;2.40;1.00;;;;;;4991893;28;20186;-69
2023/12/01 06:35:17;;;;;;;1999.90;999.90;;;2.40;99.90;;;;;;4991863;28;20558;-69
2023/12/01 06:37:44;;;;;;;1999.90;999.90;;;2.40;99.90;;;;;;4991392;28;20588;-69
2023/12/01 06:40:11;;;;;;;1999.90;999.90;;;2.40;99.90;;;;;;4991733;28;20664;-69
2023/12/01 06:42:41;;;;;;;1999.90;999.90;;;2.40;99.90;;;;;;4992647;28;20215;-69
2023/12/01 06:45:10;;;;;;;1999.90;999.90;;;2.40;99.90;;;;;;4995239;28;20173;-69
2023/12/01 06:47:36;;;;;;;1999.90;999.90;;;1.90;1.00;;;;;;4994875;28;20186;-69
2023/12/01 06:50:02;;;;;;;1999.90;999.90;;;2.40;99.90;;;;;;4995264;28;20192;-69
2023/12/01 06:52:28;;;;;;;1999.90;999.90;;;2.30;99.90;;;;;;4995204;28;20451;-69
2023/12/01 06:54:53;;;;;;;1999.90;999.90;;;2.40;99.90;;;;;;4995053;28;20208;-69
2023/12/01 06:57:19;;;;;;;1999.90;999.90;;;2.40;99.90;;;;;;4994695;28;20225;-69
2023/12/01 06:59:44;;;;;;;1999.90;999.90;;;2.30;99.90;;;;;;4994815;28;20227;-69
2023/12/01 07:02:10;;;;;;;1999.90;999.90;;;2.30;99.90;;;;;;4994765;28;20236;-69
2023/12/01 07:04:35;;;;;;;1999.90;999.90;;;2.40;1.00;;;;;;4994839;28;20178;-69
2023/12/01 07:07:02;;;;;;;1999.90;999.90;;;2.30;1.00;;;;;;4994355;28;20722;-69
2023/12/01 07:09:28;;;;;;;1999.90;999.90;;;2.30;1.00;;;;;;4994575;28;20202;-69
2023/12/01 07:11:54;;;;;;;1999.90;999.90;;;2.40;1.00;;;;;;4994684;28;20193;-69
2023/12/01 07:14:23;;;;;;;1999.90;999.90;;;2.30;91.70;;;;;;4994690;28;20788;-69
2023/12/01 07:16:49;;;;;;;1999.90;999.90;;;2.40;99.90;;;;;;4994403;28;20711;-69
2023/12/01 07:19:16;;;;;;;1999.90;999.90;;;2.30;1.00;;;;;;4994325;28;20794;-69
2023/12/01 07:21:45;;;;;;;1999.90;999.90;;;2.30;99.90;;;;;;4989283;28;20190;-69
2023/12/01 07:24:10;;;;;;;1999.90;999.90;;;2.30;99.90;;;;;;4994533;28;20213;-69
2023/12/01 07:26:36;;;;;;;1999.90;999.90;;;2.20;99.90;;;;;;4994420;28;20209;-69
2023/12/01 07:29:04;;;;;;;1999.90;999.90;;;2.30;1.00;;;;;;4994441;28;20221;-69
2023/12/01 07:31:32;;;;;;;1999.90;999.90;;;2.20;1.00;;;;;;4994533;28;20452;-69
2023/12/01 07:33:57;;;;;;;1999.90;999.90;;;2.20;1.00;;;;;;4994434;28;20212;-69
2023/12/01 07:36:23;;;;;;;1999.90;999.90;;;2.20;99.90;;;;;;4994113;28;20173;-69
2023/12/01 07:38:49;;;;;;;1999.90;999.90;;;2.20;1.00;;;;;;4994317;28;20197;-69
2023/12/01 07:41:14;;;;;;;1999.90;999.90;;;2.20;1.00;;;;;;4994213;28;20575;-69
2023/12/01 07:43:40;;;;;;;1999.90;999.90;;;2.20;99.90;;;;;;4994557;28;20180;-69
2023/12/01 07:46:06;;;;;;;1999.90;999.90;;;2.20;1.00;;;;;;4994046;28;20252;-69
2023/12/01 07:48:35;;;;;;;1999.90;999.90;;;2.30;66.40;;;;;;4993968;28;20196;-69
2023/12/01 07:51:02;;;;;;;1999.90;999.90;;;2.30;99.90;;;;;;4994099;28;20595;-69
2023/12/01 07:53:28;;;;;;;1999.90;999.90;;;2.30;99.90;;;;;;4993915;28;20209;-69
2023/12/01 07:55:54;;;;;;;1999.90;999.90;;;2.40;99.90;;;;;;4993986;28;20202;-69
2023/12/01 07:58:20;;;;;;;1999.90;999.90;;;2.40;99.90;;;;;;4993383;28;20476;-69
2023/12/01 08:00:46;;;;;;;1999.90;999.90;;;2.40;90.00;;;;;;4993866;28;20158;-69
2023/12/01 08:03:12;;;;;;;1999.90;999.90;;;2.40;1.00;;;;;;4993878;28;20180;-69
2023/12/01 08:05:39;;;;;;;1999.90;999.90;;;2.40;1.00;;;;;;4993724;28;20194;-69
2023/12/01 08:08:05;;;;;;;1999.90;999.90;;;2.40;1.00;;;;;;4993663;28;20268;-69
2023/12/01 08:10:31;;;;;;;1999.90;999.90;;;2.40;1.00;;;;;;4993625;28;20174;-69
2023/12/01 08:12:57;;;;;;;1999.90;999.90;;;2.50;99.90;;;;;;4993655;28;20178;-69
2023/12/01 08:15:23;;;;;;;1999.90;999.90;;;2.50;99.90;;;;;;4993600;28;20196;-69
2023/12/01 08:17:49;;;;;;;1999.90;999.90;;;2.40;64.40;;;;;;4993167;28;20461;-69
2023/12/01 08:20:16;;;;;;;1999.90;999.90;;;2.50;1.00;;;;;;5006382;28;20183;-69
2023/12/01 08:22:46;;;;;;;1999.90;999.90;;;2.50;1.00;;;;;;5013239;28;20470;-69
2023/12/01 08:25:15;;;;;;;1999.90;999.90;;;2.50;1.00;;;;;;5013551;28;20173;-69
2023/12/01 08:27:41;;;;;;;1999.90;999.90;;;2.50;1.00;;;;;;5013004;28;20207;-69
2023/12/01 08:30:08;;;;;;;1999.90;999.90;;;2.50;99.90;;;;;;5013302;28;20169;-69
2023/12/01 08:32:33;;;;;;;1999.90;999.90;;;2.40;99.90;;;;;;5013351;28;20177;-69
2023/12/01 08:35:00;;;;;;;1999.90;999.90;;;2.50;88.30;;;;;;5013164;28;20605;-69
2023/12/01 08:37:25;;;;;;;1999.90;999.90;;;2.40;1.00;;;;;;5012639;28;20227;-69
2023/12/01 08:39:51;;;;;;;1999.90;999.90;;;2.50;99.90;;;;;;5013186;28;20644;-69
2023/12/01 08:42:19;;;;;;;1999.90;999.90;;;2.60;99.90;;;;;;5013051;28;20657;-69
2023/12/01 08:44:45;;;;;;;1999.90;999.90;;;2.60;1.00;;;;;;5011442;28;20256;-69
2023/12/01 08:47:13;;;;;;;1999.90;999.90;;;2.60;1.00;;;;;;5004368;28;20313;-70
2023/12/01 08:49:40;;;;;;;1999.90;999.90;;;2.80;1.00;;;;;;4988080;28;21036;-70
2023/12/01 08:52:07;;;;;;;1999.90;999.90;;;2.70;99.90;;;;;;4988472;28;20673;-69
2023/12/01 08:54:36;;;;;;;1999.90;999.90;;;2.60;29.40;;;;;;4989201;28;20194;-70
2023/12/01 08:57:01;;;;;;;1999.90;999.90;;;2.70;99.90;;;;;;4987910;28;20205;-70
2023/12/01 08:59:27;;;;;;;1999.90;999.90;;;2.70;99.90;;;;;;4988419;28;20216;-69
2023/12/01 09:01:53;;;;;;;1999.90;999.90;;;2.70;99.90;;;;;;4989086;28;20653;-69
2023/12/01 09:04:20;;;;;;;1999.90;999.90;;;2.70;99.90;;;;;;4988333;28;20205;-69
2023/12/01 09:06:45;;;;;;;1999.90;999.90;;;2.70;1.00;;;;;;4987802;28;20178;-69
2023/12/01 09:09:12;;;;;;;1999.90;999.90;;;2.70;1.00;;;;;;4988585;28;20201;-69
2023/12/01 09:11:38;;;;;;;1999.90;999.90;;;2.60;1.00;;;;;;4987994;28;20652;-69
2023/12/01 09:14:03;;;;;;;1999.90;999.90;;;2.60;1.00;;;;;;4988619;28;20189;-68
2023/12/01 09:16:29;;;;;;;1999.90;999.90;;;2.60;99.90;;;;;;4987940;28;20186;-69
2023/12/01 09:18:54;;;;;;;1999.90;999.90;;;2.60;99.90;;;;;;4987993;28;20966;-70
2023/12/01 09:21:20;;;;;;;1999.90;999.90;;;2.70;99.90;;;;;;4988475;28;20177;-70
2023/12/01 09:23:45;;;;;;;1999.90;999.90;;;2.70;99.90;;;;;;4988126;28;20232;-71
2023/12/01 09:26:17;;;;;;;1999.90;999.90;;;2.70;1.00;;;;;;4987929;28;20185;-70
2023/12/01 09:28:43;;;;;;;1999.90;999.90;;;2.70;99.90;;;;;;4985277;28;20231;-70
2023/12/01 09:31:10;;;;;;;1999.90;999.90;;;2.70;99.90;;;;;;4985658;28;20653;-70
2023/12/01 09:33:37;;;;;;;1999.90;999.90;;;2.80;99.90;;;;;;4987639;28;20181;-70
2023/12/01 09:36:04;;;;;;;1999.90;999.90;;;2.80;99.90;;;;;;4988401;28;20931;-70
2023/12/01 09:38:30;;;;;;;1999.90;999.90;;;2.80;99.90;;;;;;4987408;28;20700;-70
2023/12/01 09:40:56;;;;;;;1999.90;999.90;;;2.80;99.90;;;;;;4987684;28;20452;-70
2023/12/01 09:43:23;;;;;;;1999.90;999.90;;;2.90;99.90;;;;;;4988387;28;20421;-70
2023/12/01 09:45:49;;;;;;;1999.90;999.90;;;2.90;25.20;;;;;;4987888;28;20634;-70
2023/12/01 09:48:19;;;;;;;1999.90;999.90;;;2.80;1.00;;;;;;4987770;28;20288;-70
2023/12/01 09:50:46;;;;;;;1999.90;999.90;;;2.60;1.00;;;;;;4988323;28;20193;-70
2023/12/01 09:53:12;;;;;;;1999.90;999.90;;;2.60;1.00;;;;;;4987864;28;20551;-70
2023/12/01 09:55:38;;;;;;;1999.90;999.90;;;2.70;1.00;;;;;;4987786;28;20708;-70
2023/12/01 09:58:04;;;;;;;1999.90;999.90;;;2.70;1.00;;;;;;4987797;28;20201;-70
2023/12/01 10:00:29;;;;;;;1999.90;999.90;;;2.80;92.70;;;;;;4987947;28;20536;-70
2023/12/01 10:02:55;;;;;;;1999.90;999.90;;;2.70;99.90;;;;;;4988242;28;20475;-70
2023/12/01 10:05:21;;;;;;;1999.90;999.90;;;2.70;99.90;;;;;;4987749;28;20679;-70
2023/12/01 10:07:49;;;;;;;1999.90;999.90;;;2.60;1.00;;;;;;4987363;28;20293;-70
2023/12/01 10:10:25;;;;;;;1999.90;999.90;;;2.70;99.90;;;;;;4988159;28;20186;-70
2023/12/01 10:12:58;;;;;;;1999.90;999.90;;;2.60;99.90;;;;;;4988453;28;20192;-69
2023/12/01 10:15:25;;;;;;;1999.90;999.90;;;2.60;76.00;;;;;;4986539;28;20420;-70
2023/12/01 10:17:52;;;;;;;1999.90;999.90;;;2.60;17.80;;;;;;4987037;28;20683;-70
2023/12/01 10:20:21;;;;;;;1999.90;999.90;;;2.50;1.00;;;;;;5006596;28;20657;-70
2023/12/01 10:22:50;;;;;;;1999.90;999.90;;;2.50;1.00;;;;;;5014597;28;20183;-70
2023/12/01 10:25:16;;;;;;;1999.90;999.90;;;2.50;1.00;;;;;;4996185;28;20178;-70
2023/12/01 10:27:52;;;;;;;1999.90;999.90;;;2.50;57.40;;;;;;5014449;28;20204;-70
2023/12/01 10:30:17;;;;;;;1999.90;999.90;;;2.50;1.00;;;;;;5014620;28;20655;-70
2023/12/01 10:32:43;;;;;;;1999.90;999.90;;;2.50;1.00;;;;;;5014407;28;20187;-70
2023/12/01 10:35:09;;;;;;;1999.90;999.90;;;2.50;99.90;;;;;;5009177;28;20173;-70
2023/12/01 10:37:37;;;;;;;1999.90;999.90;;;2.50;1.00;;;;;;5013931;28;20196;-70
2023/12/01 10:40:07;;;;;;;1999.90;999.90;;;2.60;99.90;;;;;;4986261;28;20188;-69
2023/12/01 10:42:34;;;;;;;1999.90;999.90;;;2.60;99.90;;;;;;4991928;28;20177;-68
2023/12/01 10:45:04;;;;;;;1999.90;999.90;;;2.70;44.00;;;;;;4994681;28;20224;-69
2023/12/01 10:47:31;;;;;;;1999.90;999.90;;;2.20;99.90;;;;;;4994277;28;20182;-69
2023/12/01 10:49:56;;;;;;;1999.90;999.90;;;2.50;1.00;;;;;;4987619;28;20178;-69
2023/12/01 10:52:24;;;;;;;1999.90;999.90;;;2.50;1.00;;;;;;4993422;28;20541;-69
2023/12/01 10:54:49;;;;;;;1999.90;999.90;;;2.40;1.00;;;;;;4994707;28;20443;-69
2023/12/01 10:57:20;;;;;;;1999.90;999.90;;;2.40;1.00;;;;;;4994210;28;20545;-68
2023/12/01 10:59:52;;;;;;;1999.90;999.90;;;2.40;1.00;;;;;;4994629;28;20216;-69
2023/12/01 11:02:21;;;;;;;1999.90;999.90;;;2.40;24.90;;;;;;4994156;28;20224;-69
2023/12/01 11:04:48;;;;;;;1999.90;999.90;;;2.50;1.00;;;;;;4999825;28;20188;-69
2023/12/01 11:07:34;;;;;;;1999.90;999.90;;;2.40;1.00;;;;;;4994995;28;20186;-69
2023/12/01 11:10:27;;;;;;;1999.90;999.90;;;2.50;1.00;;;;;;4994363;28;20177;-69
2023/12/01 11:13:18;;;;;;;1999.90;999.90;;;2.50;1.00;;;;;;4994096;28;20178;-70
2023/12/01 11:15:45;;;;;;;1999.90;999.90;;;2.50;1.00;;;;;;4994162;28;20187;-69
2023/12/01 11:18:11;;;;;;;1999.90;999.90;;;2.50;1.00;;;;;;4991742;28;20583;-70
2023/12/01 11:20:45;;;;;;;1999.90;999.90;;;2.60;1.00;;;;;;4993911;28;20173;-69
2023/12/01 11:23:13;;;;;;;1999.90;999.90;;;2.60;1.00;;;;;;4993807;28;20724;-69
2023/12/01 11:25:48;;;;;;;1999.90;999.90;;;2.60;99.90;;;;;;4995247;28;20174;-69
2023/12/01 11:28:22;;;;;;;1999.90;999.90;;;2.60;1.00;;;;;;4993873;28;20251;-68
2023/12/01 11:31:07;;;;;;;1999.90;999.90;;;2.60;99.90;;;;;;5013530;28;20172;-69
2023/12/01 11:33:38;;;;;;;1999.90;999.90;;;2.60;1.00;;;;;;5013418;28;20173;-69
2023/12/01 11:36:26;;;;;;;1999.90;999.90;;;2.60;99.90;;;;;;5013402;28;20259;-69
2023/12/01 11:41:41;;;;;;;1999.90;999.90;;;2.60;99.90;;;;;;4999951;28;20173;-69
2023/12/01 11:44:29;;;;;;;1999.90;999.90;;;2.60;99.90;;;;;;5004494;28;20173;-69
2023/12/01 11:46:56;;;;;;;1999.90;999.90;;;2.70;99.90;;;;;;4984990;28;20681;-69
2023/12/01 11:49:24;;;;;;;1999.90;999.90;;;2.60;99.90;;;;;;4997216;28;20205;-69
2023/12/01 11:51:49;;;;;;;1999.90;999.90;;;2.60;99.90;;;;;;4996881;28;20177;-69
2023/12/01 11:54:15;;;;;;;1999.90;999.90;;;2.60;99.90;;;;;;5013025;28;20171;-69
2023/12/01 11:56:47;;;;;;;1999.90;999.90;;;2.60;99.90;;;;;;5012694;28;20244;-69
2023/12/01 11:59:12;;;;;;;1999.90;999.90;;;2.70;99.90;;;;;;5012666;28;20623;-69
2023/12/01 12:01:38;;;;;;;1999.90;999.90;;;2.60;99.90;;;;;;5013091;28;20181;-69
2023/12/01 12:04:04;;;;;;;1999.90;999.90;;;2.60;99.90;;;;;;5012841;28;20177;-69
2023/12/01 12:06:32;;;;;;;1999.90;999.90;;;2.50;99.90;;;;;;5012686;28;20169;-70
2023/12/01 12:09:01;;;;;;;1999.90;999.90;;;2.50;1.00;;;;;;5012782;28;20566;-69
2023/12/01 12:11:26;;;;;;;1999.90;999.90;;;2.50;99.90;;;;;;5012659;28;20165;-69
2023/12/01 12:13:56;;;;;;;1999.90;999.90;;;2.50;1.00;;;;;;5012721;28;20196;-69
2023/12/01 12:16:23;;;;;;;1999.90;999.90;;;2.60;1.00;;;;;;5012621;28;20559;-69